createdAt,value
2022-11-28T00:01:37.791Z,23.70
2022-11-28T00:04:09.695Z,20.83
2022-11-28T00:06:39.107Z,21.90
2022-11-28T00:09:09.255Z,23.40
2022-11-28T00:11:37.226Z,21.33
2022-11-28T00:14:05.495Z,22.13
2022-11-28T00:16:34.818Z,22.53
2022-11-28T00:19:03.612Z,18.33
2022-11-28T00:21:32.118Z,22.00
2022-11-28T00:24:00.793Z,22.13
2022-11-28T00:26:31.290Z,21.23
2022-11-28T00:29:00.187Z,21.83
2022-11-28T00:31:33.132Z,20.67
2022-11-28T00:34:03.002Z,21.50
2022-11-28T00:36:31.656Z,21.03
2022-11-28T00:38:59.489Z,23.67
2022-11-28T00:41:30.193Z,23.40
2022-11-28T00:43:58.845Z,21.20
2022-11-28T00:46:27.072Z,21.50
2022-11-28T00:48:54.937Z,23.17
2022-11-28T00:51:26.670Z,22.23
2022-11-28T00:53:56.264Z,21.93
2022-11-28T00:56:26.268Z,21.27
2022-11-28T00:58:54.522Z,21.43
2022-11-28T01:01:24.484Z,21.87
2022-11-28T01:03:54.158Z,21.17
2022-11-28T01:06:24.927Z,21.10
2022-11-28T01:08:53.187Z,19.40
2022-11-28T01:11:21.785Z,22.03
2022-11-28T01:13:49.814Z,21.60
2022-11-28T01:16:20.540Z,21.33
2022-11-28T01:18:48.449Z,22.63
2022-11-28T01:21:16.698Z,21.73
2022-11-28T01:23:46.068Z,21.30
2022-11-28T01:26:18.774Z,23.20
2022-11-28T01:28:47.106Z,25.10
2022-11-28T01:31:17.185Z,22.67
2022-11-28T01:33:45.722Z,23.13
2022-11-28T01:36:15.176Z,23.17
2022-11-28T01:38:45.037Z,22.40
2022-11-28T01:41:13.402Z,20.63
2022-11-28T01:44:07.708Z,20.83
2022-11-28T01:46:37.075Z,22.30
2022-11-28T01:49:16.605Z,26.33
2022-11-28T01:51:48.865Z,21.83
2022-11-28T01:54:21.562Z,20.27
2022-11-28T01:56:54.033Z,20.13
2022-11-28T01:59:27.515Z,19.50
2022-11-28T02:01:55.654Z,20.67
2022-11-28T02:04:26.927Z,20.67
2022-11-28T02:06:55.459Z,20.03
2022-11-28T02:09:24.664Z,20.70
2022-11-28T02:12:12.399Z,20.83
2022-11-28T02:15:07.740Z,18.93
2022-11-28T02:17:47.508Z,20.50
2022-11-28T02:20:36.954Z,21.07
2022-11-28T02:23:14.441Z,21.20
2022-11-28T02:26:06.566Z,22.10
2022-11-28T02:28:59.057Z,21.30
2022-11-28T02:31:43.925Z,21.67
2022-11-28T02:34:20.674Z,20.70
2022-11-28T02:36:54.021Z,21.10
2022-11-28T02:39:31.481Z,22.00
2022-11-28T02:42:08.216Z,22.40
2022-11-28T02:44:44.471Z,20.57
2022-11-28T02:47:19.882Z,23.93
2022-11-28T02:49:55.888Z,22.70
2022-11-28T02:52:28.936Z,23.30
2022-11-28T02:54:56.883Z,21.77
2022-11-28T02:57:30.187Z,21.07
2022-11-28T02:59:58.075Z,22.30
2022-11-28T03:02:29.046Z,21.90
2022-11-28T03:05:08.718Z,21.40
2022-11-28T03:08:01.804Z,21.80
2022-11-28T03:10:36.750Z,21.80
2022-11-28T03:13:11.198Z,21.87
2022-11-28T03:15:46.408Z,19.93
2022-11-28T03:18:21.386Z,19.50
2022-11-28T03:20:56.309Z,21.93
2022-11-28T03:23:31.523Z,19.67
2022-11-28T03:26:02.779Z,19.53
2022-11-28T03:28:38.169Z,20.37
2022-11-28T03:31:14.273Z,19.40
2022-11-28T03:33:46.548Z,20.50
2022-11-28T03:36:20.497Z,18.93
2022-11-28T03:38:51.675Z,18.70
2022-11-28T03:41:23.174Z,19.80
2022-11-28T03:43:54.679Z,19.67
2022-11-28T03:46:27.246Z,17.53
2022-11-28T03:48:59.614Z,22.50
2022-11-28T03:51:33.714Z,20.00
2022-11-28T03:54:09.351Z,19.60
2022-11-28T03:56:41.975Z,20.30
2022-11-28T03:59:14.441Z,21.33
2022-11-28T04:01:53.883Z,23.00
2022-11-28T04:04:29.270Z,21.23
2022-11-28T04:07:01.536Z,23.80
2022-11-28T04:09:42.335Z,22.63
2022-11-28T04:12:20.642Z,22.60
2022-11-28T04:14:53.949Z,22.80
2022-11-28T04:17:31.900Z,21.70
2022-11-28T04:20:07.036Z,21.63
2022-11-28T04:22:43.645Z,20.47
2022-11-28T04:25:15.134Z,20.83
2022-11-28T04:27:47.568Z,18.77
2022-11-28T04:30:15.944Z,18.40
2022-11-28T04:32:49.130Z,15.83
2022-11-28T04:35:22.832Z,16.93
2022-11-28T04:37:53.817Z,16.70
2022-11-28T04:40:24.853Z,17.07
2022-11-28T04:42:56.923Z,16.73
2022-11-28T04:45:30.019Z,18.07
2022-11-28T04:47:58.428Z,15.83
2022-11-28T04:50:32.137Z,16.20
2022-11-28T04:53:11.567Z,16.47
2022-11-28T04:55:44.810Z,16.50
2022-11-28T04:58:17.252Z,17.20
2022-11-28T05:00:46.652Z,17.60
2022-11-28T05:03:14.732Z,17.20
2022-11-28T05:05:45.652Z,15.90
2022-11-28T05:08:15.010Z,16.37
2022-11-28T05:10:43.139Z,16.27
2022-11-28T05:13:11.157Z,15.40
2022-11-28T05:15:39.205Z,15.73
2022-11-28T05:18:07.608Z,16.20
2022-11-28T05:20:35.906Z,17.73
2022-11-28T05:23:03.695Z,16.60
2022-11-28T05:25:32.999Z,16.63
2022-11-28T05:28:00.841Z,14.77
2022-11-28T05:30:28.650Z,15.50
2022-11-28T05:32:56.478Z,15.10
2022-11-28T05:35:24.374Z,16.43
2022-11-28T05:37:52.162Z,15.10
2022-11-28T05:40:20.221Z,14.87
2022-11-28T05:42:49.382Z,15.40
2022-11-28T05:45:17.268Z,15.83
2022-11-28T05:47:45.164Z,16.33
2022-11-28T05:50:13.160Z,14.90
2022-11-28T05:52:41.010Z,14.87
2022-11-28T05:55:09.736Z,17.10
2022-11-28T05:57:37.572Z,15.33
2022-11-28T06:00:08.308Z,14.93
2022-11-28T06:02:42.086Z,15.50
2022-11-28T06:05:34.673Z,14.83
2022-11-28T06:07:58.131Z,15.07
2022-11-28T06:10:26.069Z,15.00
2022-11-28T06:12:53.932Z,16.90
2022-11-28T06:15:23.146Z,14.40
2022-11-28T06:17:51.019Z,15.73
2022-11-28T06:20:19.054Z,15.07
2022-11-28T06:22:47.593Z,14.93
2022-11-28T06:25:15.470Z,14.10
2022-11-28T06:27:43.885Z,24.90
2022-11-28T06:30:12.039Z,16.47
2022-11-28T06:32:41.184Z,26.20
2022-11-28T06:35:09.467Z,16.90
2022-11-28T06:37:37.281Z,16.60
2022-11-28T06:40:06.151Z,14.77
2022-11-28T06:42:35.778Z,14.47
2022-11-28T06:45:04.584Z,14.30
2022-11-28T06:47:32.784Z,15.23
2022-11-28T06:50:02.126Z,13.93
2022-11-28T06:52:30.138Z,14.20
2022-11-28T06:54:58.010Z,14.50
2022-11-28T06:57:25.805Z,14.20
2022-11-28T06:59:53.670Z,13.80
2022-11-28T07:02:22.853Z,13.37
2022-11-28T07:04:50.803Z,12.70
2022-11-28T07:07:20.064Z,13.17
2022-11-28T07:09:48.053Z,16.00
2022-11-28T07:12:15.860Z,12.70
2022-11-28T07:14:43.656Z,12.67
2022-11-28T07:17:11.560Z,13.80
2022-11-28T07:19:39.631Z,14.00
2022-11-28T07:22:07.490Z,12.30
2022-11-28T07:24:36.688Z,12.50
2022-11-28T07:27:04.623Z,12.73
2022-11-28T07:29:36.469Z,11.90
2022-11-28T07:32:05.803Z,10.77
2022-11-28T07:34:33.685Z,10.70
2022-11-28T07:37:01.529Z,10.93
2022-11-28T07:39:29.406Z,10.37
2022-11-28T07:41:58.559Z,10.30
2022-11-28T07:44:26.347Z,10.43
2022-11-28T07:46:54.317Z,12.43
2022-11-28T07:49:22.242Z,11.07
2022-11-28T07:51:50.343Z,11.33
2022-11-28T07:54:18.216Z,10.30
2022-11-28T07:59:35.654Z,10.40
2022-11-28T08:02:03.734Z,11.33
2022-11-28T08:04:31.836Z,11.60
2022-11-28T08:06:59.745Z,11.43
2022-11-28T08:09:27.681Z,11.60
2022-11-28T08:11:55.639Z,12.13
2022-11-28T08:14:23.500Z,12.53
2022-11-28T08:16:52.802Z,11.20
2022-11-28T08:19:24.632Z,11.67
2022-11-28T08:21:52.880Z,11.83
2022-11-28T08:24:20.675Z,12.93
2022-11-28T08:26:48.469Z,14.30
2022-11-28T08:29:16.337Z,13.20
2022-11-28T08:31:44.192Z,11.57
2022-11-28T08:34:13.334Z,11.40
2022-11-28T08:36:43.348Z,13.37
2022-11-28T08:39:27.828Z,11.60
2022-11-28T08:41:58.914Z,11.80
2022-11-28T08:44:30.268Z,11.73
2022-11-28T08:46:58.552Z,13.60
2022-11-28T08:49:27.688Z,13.47
2022-11-28T08:51:55.566Z,13.37
2022-11-28T08:54:23.446Z,11.53
2022-11-28T08:56:51.335Z,11.60
2022-11-28T08:59:19.174Z,13.70
2022-11-28T09:01:47.080Z,13.43
2022-11-28T09:04:15.079Z,12.33
2022-11-28T09:06:44.328Z,12.90
2022-11-28T09:09:12.517Z,13.03
2022-11-28T09:11:40.593Z,12.97
2022-11-28T09:14:08.774Z,13.30
2022-11-28T09:16:36.635Z,11.70
2022-11-28T09:19:05.123Z,11.60
2022-11-28T09:21:33.201Z,11.33
2022-11-28T09:24:02.407Z,12.73
2022-11-28T09:26:30.947Z,11.93
2022-11-28T09:28:58.790Z,11.90
2022-11-28T09:31:26.645Z,12.33
2022-11-28T09:33:54.975Z,11.80
2022-11-28T09:36:24.780Z,11.20
2022-11-28T09:38:52.811Z,11.30
2022-11-28T09:41:34.719Z,10.93
2022-11-28T09:44:08.000Z,9.50
2022-11-28T09:46:38.304Z,9.93
2022-11-28T09:49:20.852Z,10.27
2022-11-28T09:51:53.977Z,10.40
2022-11-28T09:54:28.955Z,9.43
2022-11-28T09:56:59.964Z,10.20
2022-11-28T09:59:30.080Z,9.30
2022-11-28T10:02:05.770Z,10.77
2022-11-28T10:04:42.395Z,9.33
2022-11-28T10:07:20.605Z,9.40
2022-11-28T10:09:58.147Z,9.20
2022-11-28T10:12:44.503Z,10.50
2022-11-28T10:15:25.674Z,10.43
2022-11-28T10:18:08.150Z,11.17
2022-11-28T10:20:40.527Z,11.23
2022-11-28T10:23:15.863Z,11.97
2022-11-28T10:25:49.474Z,10.40
2022-11-28T10:28:23.192Z,11.90
2022-11-28T10:30:58.223Z,11.77
2022-11-28T10:33:30.998Z,12.33
2022-11-28T10:36:01.490Z,11.73
2022-11-28T10:38:34.110Z,11.43
2022-11-28T10:41:08.787Z,11.07
2022-11-28T10:43:45.070Z,12.37
2022-11-28T10:46:31.747Z,11.00
2022-11-28T10:49:09.076Z,11.40
2022-11-28T10:51:49.950Z,9.80
2022-11-28T10:54:26.582Z,10.00
2022-11-28T10:57:02.165Z,11.33
2022-11-28T10:59:42.637Z,11.90
2022-11-28T11:02:21.621Z,11.63
2022-11-28T11:04:49.546Z,11.40
2022-11-28T11:07:27.987Z,12.27
2022-11-28T11:09:59.462Z,12.40
2022-11-28T11:12:31.530Z,12.73
2022-11-28T11:15:15.321Z,12.23
2022-11-28T11:17:43.110Z,12.70
2022-11-28T11:20:38.139Z,12.13
2022-11-28T11:23:16.562Z,11.90
2022-11-28T11:25:55.562Z,12.17
2022-11-28T11:28:41.612Z,13.20
2022-11-28T11:31:20.695Z,12.23
2022-11-28T11:33:51.459Z,13.43
2022-11-28T11:36:28.776Z,13.03
2022-11-28T11:39:08.187Z,13.27
2022-11-28T11:41:36.042Z,13.10
2022-11-28T11:44:29.596Z,13.87
2022-11-28T11:47:01.815Z,15.17
2022-11-28T11:49:32.116Z,12.93
2022-11-28T11:52:02.106Z,13.60
2022-11-28T11:54:30.495Z,13.37
2022-11-28T11:57:30.582Z,14.73
2022-11-28T11:59:51.699Z,13.50
2022-11-28T12:02:26.522Z,14.50
2022-11-28T12:05:00.487Z,14.13
2022-11-28T12:07:34.339Z,13.10
2022-11-28T12:10:04.752Z,13.93
2022-11-28T12:12:37.320Z,13.93
2022-11-28T12:15:13.020Z,13.90
2022-11-28T12:17:58.577Z,14.30
2022-11-28T12:20:42.906Z,13.30
2022-11-28T12:23:30.628Z,13.70
2022-11-28T12:26:07.213Z,13.33
2022-11-28T12:28:48.728Z,13.57
2022-11-28T12:31:27.253Z,13.43
2022-11-28T12:34:07.571Z,14.43
2022-11-28T12:36:42.497Z,13.40
2022-11-28T12:39:18.819Z,14.60
2022-11-28T12:42:20.112Z,12.77
2022-11-28T12:44:59.869Z,13.97
2022-11-28T12:47:39.432Z,14.33
2022-11-28T12:50:21.618Z,12.60
2022-11-28T12:53:00.891Z,12.27
2022-11-28T12:55:36.410Z,13.20
2022-11-28T12:58:12.737Z,12.13
2022-11-28T13:00:51.102Z,11.90
2022-11-28T13:03:34.255Z,12.20
2022-11-28T13:06:16.131Z,11.57
2022-11-28T13:09:15.305Z,13.20
2022-11-28T13:11:58.071Z,12.10
2022-11-28T13:14:36.859Z,12.10
2022-11-28T13:17:17.341Z,12.37
2022-11-28T13:19:51.205Z,12.00
2022-11-28T13:22:25.189Z,12.73
2022-11-28T13:25:01.589Z,13.20
2022-11-28T13:27:38.528Z,11.80
2022-11-28T13:30:21.100Z,13.40
2022-11-28T13:32:55.217Z,10.80
2022-11-28T13:35:24.369Z,12.27
2022-11-28T13:40:52.904Z,10.70
2022-11-28T13:43:28.617Z,12.47
2022-11-28T13:45:57.191Z,12.40
2022-11-28T13:49:13.757Z,12.53
2022-11-28T13:51:42.992Z,12.33
2022-11-28T13:54:37.105Z,12.40
2022-11-28T13:57:15.360Z,11.60
2022-11-28T13:59:49.855Z,11.93
2022-11-28T14:02:23.988Z,11.90
2022-11-28T14:04:51.946Z,11.60
2022-11-28T14:07:30.729Z,10.60
2022-11-28T14:10:26.769Z,11.30
2022-11-28T14:13:22.956Z,12.63
2022-11-28T14:16:07.778Z,11.40
2022-11-28T14:18:58.437Z,11.60
2022-11-28T14:21:40.067Z,10.73
2022-11-28T14:24:17.282Z,11.80
2022-11-28T14:26:45.598Z,12.33
2022-11-28T14:29:24.131Z,12.90
2022-11-28T14:32:21.652Z,12.20
2022-11-28T14:34:45.521Z,12.37
2022-11-28T14:37:57.664Z,12.30
2022-11-28T14:41:06.123Z,12.70
2022-11-28T14:43:36.617Z,12.60
2022-11-28T14:46:33.888Z,12.67
2022-11-28T14:49:17.672Z,11.60
2022-11-28T14:54:57.907Z,12.60
2022-11-28T14:57:28.899Z,12.53
2022-11-28T14:59:59.678Z,13.80
2022-11-28T15:02:44.924Z,13.80
2022-11-28T15:05:34.588Z,12.33
2022-11-28T15:08:47.995Z,12.17
2022-11-28T15:11:24.052Z,13.43
2022-11-28T15:14:09.835Z,11.70
2022-11-28T15:16:48.250Z,11.80
2022-11-28T15:19:26.500Z,17.77
2022-11-28T15:21:56.198Z,18.40
2022-11-28T15:24:30.436Z,13.40
2022-11-28T15:27:17.286Z,12.23
2022-11-28T15:29:54.677Z,12.23
2022-11-28T15:32:23.642Z,13.07
2022-11-28T15:35:00.911Z,13.13
2022-11-28T15:37:32.056Z,12.20
2022-11-28T15:40:03.412Z,11.33
2022-11-28T15:42:33.903Z,13.07
2022-11-28T15:45:09.521Z,12.93
2022-11-28T15:47:38.916Z,12.53
2022-11-28T15:50:18.198Z,12.47
2022-11-28T15:52:54.686Z,12.30
2022-11-28T15:55:23.054Z,13.10
2022-11-28T15:57:51.050Z,14.03
2022-11-28T16:00:21.867Z,12.13
2022-11-28T16:02:50.258Z,12.10
2022-11-28T16:05:22.236Z,13.70
2022-11-28T16:07:51.959Z,13.33
2022-11-28T16:10:25.183Z,13.73
2022-11-28T16:13:01.758Z,14.23
2022-11-28T16:15:30.756Z,13.10
2022-11-28T16:17:58.797Z,13.70
2022-11-28T16:20:30.663Z,13.10
2022-11-28T16:23:02.541Z,12.10
2022-11-28T16:25:31.136Z,12.73
2022-11-28T16:27:59.933Z,12.63
2022-11-28T16:30:33.499Z,12.33
2022-11-28T16:33:01.983Z,12.00
2022-11-28T16:35:36.072Z,12.80
2022-11-28T16:38:15.231Z,13.83
2022-11-28T16:40:43.804Z,12.80
2022-11-28T16:43:21.294Z,14.20
2022-11-28T16:45:59.957Z,13.60
2022-11-28T16:48:30.100Z,12.50
2022-11-28T16:51:36.684Z,12.93
2022-11-28T16:54:32.389Z,13.20
2022-11-28T16:57:11.869Z,13.40
2022-11-28T16:59:39.984Z,17.07
2022-11-28T17:02:15.361Z,18.13
2022-11-28T17:04:43.259Z,13.10
2022-11-28T17:07:14.601Z,13.47
2022-11-28T17:09:42.928Z,14.37
2022-11-28T17:12:17.844Z,13.40
2022-11-28T17:14:45.720Z,13.70
2022-11-28T17:17:14.691Z,12.40
2022-11-28T17:19:42.911Z,13.10
2022-11-28T17:22:15.440Z,12.73
2022-11-28T17:24:43.682Z,12.77
2022-11-28T17:27:13.003Z,13.70
2022-11-28T17:29:41.080Z,12.30
2022-11-28T17:32:13.437Z,12.37
2022-11-28T17:34:42.545Z,13.30
2022-11-28T17:37:11.032Z,13.27
2022-11-28T17:40:00.273Z,15.37
2022-11-28T17:42:28.199Z,13.70
2022-11-28T17:44:56.171Z,13.90
2022-11-28T17:47:26.804Z,12.13
2022-11-28T17:49:55.493Z,13.53
2022-11-28T17:52:30.020Z,11.73
2022-11-28T17:55:07.086Z,12.90
2022-11-28T17:57:36.091Z,13.40
2022-11-28T18:00:06.562Z,13.03
2022-11-28T18:02:41.841Z,13.77
2022-11-28T18:05:10.726Z,14.07
2022-11-28T18:07:40.243Z,13.63
2022-11-28T18:10:13.486Z,13.47
2022-11-28T18:12:41.595Z,12.00
2022-11-28T18:15:11.158Z,12.87
2022-11-28T18:17:39.388Z,12.63
2022-11-28T18:20:09.410Z,13.40
2022-11-28T18:22:37.299Z,13.60
2022-11-28T18:25:07.927Z,12.30
2022-11-28T18:27:37.212Z,14.20
2022-11-28T18:30:06.018Z,13.87
2022-11-28T18:32:33.982Z,14.33
2022-11-28T18:35:01.914Z,12.63
2022-11-28T18:37:29.915Z,14.20
2022-11-28T18:39:58.321Z,13.40
2022-11-28T18:42:26.501Z,14.00
2022-11-28T18:44:55.982Z,17.13
2022-11-28T18:47:24.841Z,15.13
2022-11-28T18:49:53.445Z,13.07
2022-11-28T18:52:21.424Z,12.87
2022-11-28T18:54:49.254Z,13.33
2022-11-28T18:57:18.319Z,13.70
2022-11-28T18:59:52.885Z,13.70
2022-11-28T19:02:24.131Z,13.40
2022-11-28T19:04:52.745Z,12.90
2022-11-28T19:07:20.920Z,13.20
2022-11-28T19:09:48.812Z,14.77
2022-11-28T19:12:16.811Z,13.20
2022-11-28T19:14:44.766Z,13.60
2022-11-28T19:17:13.036Z,12.70
2022-11-28T19:19:44.275Z,12.63
2022-11-28T19:22:12.502Z,12.87
2022-11-28T19:24:40.369Z,14.47
2022-11-28T19:27:13.876Z,13.80
2022-11-28T19:29:43.115Z,12.30
2022-11-28T19:32:11.395Z,13.10
2022-11-28T19:34:39.526Z,11.97
2022-11-28T19:37:08.802Z,12.73
2022-11-28T19:39:36.928Z,12.83
2022-11-28T19:42:04.983Z,13.77
2022-11-28T19:44:33.099Z,13.37
2022-11-28T19:47:01.908Z,12.60
2022-11-28T19:49:29.944Z,11.93
2022-11-28T19:51:58.431Z,11.43
2022-11-28T19:54:28.226Z,11.90
2022-11-28T19:56:57.055Z,12.70
2022-11-28T19:59:25.110Z,13.93
2022-11-28T20:01:53.821Z,13.67
2022-11-28T20:04:23.056Z,12.57
2022-11-28T20:06:50.874Z,13.30
2022-11-28T20:09:18.938Z,13.03
2022-11-28T20:11:49.570Z,12.67
2022-11-28T20:14:19.192Z,12.73
2022-11-28T20:16:47.892Z,12.17
2022-11-28T20:19:17.807Z,12.83
2022-11-28T20:21:46.402Z,12.13
2022-11-28T20:24:16.103Z,12.83
2022-11-28T20:26:46.289Z,12.30
2022-11-28T20:29:17.558Z,12.00
2022-11-28T20:31:48.214Z,12.40
2022-11-28T20:34:18.433Z,11.40
2022-11-28T20:36:52.163Z,12.67
2022-11-28T20:39:20.075Z,11.20
2022-11-28T20:41:48.015Z,10.20
2022-11-28T20:44:17.688Z,11.60
2022-11-28T20:46:46.379Z,11.43
2022-11-28T20:49:15.675Z,12.10
2022-11-28T20:51:43.713Z,12.77
2022-11-28T20:54:13.419Z,12.70
2022-11-28T20:57:13.007Z,11.80
2022-11-28T20:59:32.578Z,11.83
2022-11-28T21:02:00.442Z,11.73
2022-11-28T21:04:28.356Z,11.23
2022-11-28T21:06:56.237Z,12.30
2022-11-28T21:09:24.041Z,11.50
2022-11-28T21:11:59.578Z,10.97
2022-11-28T21:14:28.669Z,11.73
2022-11-28T21:16:58.941Z,12.23
2022-11-28T21:19:27.207Z,12.17
2022-11-28T21:21:55.151Z,12.67
2022-11-28T21:24:23.066Z,11.80
2022-11-28T21:26:53.830Z,12.00
2022-11-28T21:29:25.424Z,13.47
2022-11-28T21:31:53.920Z,12.77
2022-11-28T21:34:23.283Z,12.20
2022-11-28T21:36:51.294Z,12.93
2022-11-28T21:39:21.911Z,13.37
2022-11-28T21:41:50.843Z,18.13
2022-11-28T21:44:18.849Z,27.50
2022-11-28T21:46:47.827Z,18.27
2022-11-28T21:49:15.942Z,13.50
2022-11-28T21:51:45.416Z,12.37
2022-11-28T21:54:13.909Z,12.33
2022-11-28T21:56:41.937Z,13.10
2022-11-28T21:59:09.986Z,12.80
2022-11-28T22:01:38.906Z,12.67
2022-11-28T22:04:07.218Z,12.17
2022-11-28T22:06:35.318Z,13.93
2022-11-28T22:09:09.495Z,21.80
2022-11-28T22:11:39.322Z,20.50
2022-11-28T22:14:07.314Z,14.17
2022-11-28T22:16:35.209Z,12.80
2022-11-28T22:19:04.160Z,12.67
2022-11-28T22:24:22.742Z,11.97
2022-11-28T22:26:51.076Z,12.90
2022-11-28T22:29:19.377Z,12.70
2022-11-28T22:31:47.758Z,12.70
2022-11-28T22:34:15.686Z,12.37
2022-11-28T22:36:44.128Z,13.40
2022-11-28T22:39:12.350Z,13.57
2022-11-28T22:41:41.703Z,13.10
2022-11-28T22:44:11.303Z,14.50
2022-11-28T22:46:39.564Z,12.87
2022-11-28T22:49:11.160Z,13.60
2022-11-28T22:51:40.317Z,12.50
2022-11-28T22:54:09.120Z,12.63
2022-11-28T22:56:37.398Z,12.23
2022-11-28T22:59:10.541Z,12.87
2022-11-28T23:01:38.755Z,11.10
2022-11-28T23:04:06.931Z,12.07
2022-11-28T23:06:36.428Z,12.40
2022-11-28T23:09:08.473Z,12.07
2022-11-28T23:11:38.752Z,12.27
2022-11-28T23:14:08.486Z,12.60
2022-11-28T23:16:38.908Z,12.90
2022-11-28T23:19:10.597Z,12.63
2022-11-28T23:21:40.752Z,13.20
2022-11-28T23:24:13.040Z,13.40
2022-11-28T23:26:40.954Z,13.90
2022-11-28T23:29:10.641Z,12.80
2022-11-28T23:31:40.644Z,11.33
2022-11-28T23:34:09.656Z,11.40
2022-11-28T23:36:42.712Z,11.80
2022-11-28T23:39:14.269Z,12.17
2022-11-28T23:41:42.609Z,12.80
2022-11-28T23:44:13.100Z,12.53
2022-11-28T23:46:42.113Z,12.63
2022-11-28T23:49:10.724Z,11.83
2022-11-28T23:51:39.993Z,11.70
2022-11-28T23:54:08.429Z,12.10
2022-11-28T23:56:37.879Z,11.57
2022-11-28T23:59:08.559Z,12.90
